sensor_id;sensor_type;location;lat;lon;timestamp;P1;durP1;ratioP1;P2;durP2;ratioP2
4021;SDS011;2025;48.260;16.432;2022-09-29T00:00:51;0.80;;;0.80;;
4021;SDS011;2025;48.260;16.432;2022-09-29T00:03:20;0.98;;;0.70;;
4021;SDS011;2025;48.260;16.432;2022-09-29T00:05:50;4.22;;;0.80;;
4021;SDS011;2025;48.260;16.432;2022-09-29T00:08:19;2.58;;;0.73;;
4021;SDS011;2025;48.260;16.432;2022-09-29T00:10:47;0.70;;;0.70;;
4021;SDS011;2025;48.260;16.432;2022-09-29T00:13:14;0.82;;;0.60;;
4021;SDS011;2025;48.260;16.432;2022-09-29T00:15:41;0.90;;;0.90;;
4021;SDS011;2025;48.260;16.432;2022-09-29T00:18:08;1.48;;;0.90;;
4021;SDS011;2025;48.260;16.432;2022-09-29T00:20:36;0.85;;;0.85;;
4021;SDS011;2025;48.260;16.432;2022-09-29T00:23:05;0.80;;;0.80;;
4021;SDS011;2025;48.260;16.432;2022-09-29T00:25:32;2.10;;;0.60;;
4021;SDS011;2025;48.260;16.432;2022-09-29T00:27:59;5.20;;;0.90;;
4021;SDS011;2025;48.260;16.432;2022-09-29T00:30:26;1.23;;;0.70;;
4021;SDS011;2025;48.260;16.432;2022-09-29T00:32:53;0.85;;;0.85;;
4021;SDS011;2025;48.260;16.432;2022-09-29T00:35:20;0.75;;;0.75;;
4021;SDS011;2025;48.260;16.432;2022-09-29T00:37:47;1.92;;;0.80;;
4021;SDS011;2025;48.260;16.432;2022-09-29T00:40:15;0.88;;;0.88;;
4021;SDS011;2025;48.260;16.432;2022-09-29T00:42:43;0.70;;;0.70;;
4021;SDS011;2025;48.260;16.432;2022-09-29T00:45:13;0.90;;;0.80;;
4021;SDS011;2025;48.260;16.432;2022-09-29T00:47:44;1.13;;;0.80;;
4021;SDS011;2025;48.260;16.432;2022-09-29T00:50:17;0.88;;;0.88;;
4021;SDS011;2025;48.260;16.432;2022-09-29T00:52:49;0.73;;;0.70;;
4021;SDS011;2025;48.260;16.432;2022-09-29T00:55:21;2.97;;;1.13;;
4021;SDS011;2025;48.260;16.432;2022-09-29T00:57:52;1.38;;;0.80;;
4021;SDS011;2025;48.260;16.432;2022-09-29T01:00:23;0.73;;;0.73;;
4021;SDS011;2025;48.260;16.432;2022-09-29T01:02:52;0.60;;;0.60;;
4021;SDS011;2025;48.260;16.432;2022-09-29T01:05:23;0.90;;;0.90;;
4021;SDS011;2025;48.260;16.432;2022-09-29T01:07:56;0.65;;;0.65;;
4021;SDS011;2025;48.260;16.432;2022-09-29T01:10:29;4.18;;;0.98;;
4021;SDS011;2025;48.260;16.432;2022-09-29T01:12:56;1.20;;;1.10;;
4021;SDS011;2025;48.260;16.432;2022-09-29T01:15:24;2.30;;;1.10;;
4021;SDS011;2025;48.260;16.432;2022-09-29T01:17:54;0.80;;;0.80;;
4021;SDS011;2025;48.260;16.432;2022-09-29T01:20:21;0.93;;;0.93;;
4021;SDS011;2025;48.260;16.432;2022-09-29T01:25:57;1.40;;;0.85;;
4021;SDS011;2025;48.260;16.432;2022-09-29T01:28:48;0.90;;;0.90;;
4021;SDS011;2025;48.260;16.432;2022-09-29T01:31:40;0.75;;;0.70;;
4021;SDS011;2025;48.260;16.432;2022-09-29T01:34:13;0.73;;;0.73;;
4021;SDS011;2025;48.260;16.432;2022-09-29T01:36:51;2.83;;;0.82;;
4021;SDS011;2025;48.260;16.432;2022-09-29T01:39:29;0.88;;;0.88;;
4021;SDS011;2025;48.260;16.432;2022-09-29T01:42:01;1.95;;;0.75;;
4021;SDS011;2025;48.260;16.432;2022-09-29T01:44:33;0.73;;;0.73;;
4021;SDS011;2025;48.260;16.432;2022-09-29T01:47:08;1.00;;;0.90;;
4021;SDS011;2025;48.260;16.432;2022-09-29T01:49:39;2.30;;;0.82;;
4021;SDS011;2025;48.260;16.432;2022-09-29T01:52:10;1.10;;;1.10;;
4021;SDS011;2025;48.260;16.432;2022-09-29T01:57:12;1.20;;;1.10;;
4021;SDS011;2025;48.260;16.432;2022-09-29T01:59:43;1.25;;;1.23;;
4021;SDS011;2025;48.260;16.432;2022-09-29T02:02:17;1.48;;;1.30;;
4021;SDS011;2025;48.260;16.432;2022-09-29T02:04:52;1.75;;;1.23;;
4021;SDS011;2025;48.260;16.432;2022-09-29T02:07:24;1.27;;;1.20;;
4021;SDS011;2025;48.260;16.432;2022-09-29T02:09:55;1.10;;;1.10;;
4021;SDS011;2025;48.260;16.432;2022-09-29T02:12:28;1.58;;;1.05;;
4021;SDS011;2025;48.260;16.432;2022-09-29T02:15:00;1.10;;;1.10;;
4021;SDS011;2025;48.260;16.432;2022-09-29T02:17:32;2.40;;;1.23;;
4021;SDS011;2025;48.260;16.432;2022-09-29T02:20:02;1.00;;;1.00;;
4021;SDS011;2025;48.260;16.432;2022-09-29T02:22:30;1.00;;;1.00;;
4021;SDS011;2025;48.260;16.432;2022-09-29T02:24:58;1.42;;;1.10;;
4021;SDS011;2025;48.260;16.432;2022-09-29T02:27:25;4.68;;;1.00;;
4021;SDS011;2025;48.260;16.432;2022-09-29T02:29:53;1.23;;;1.08;;
4021;SDS011;2025;48.260;16.432;2022-09-29T02:32:22;1.10;;;1.10;;
4021;SDS011;2025;48.260;16.432;2022-09-29T02:34:51;2.20;;;1.30;;
4021;SDS011;2025;48.260;16.432;2022-09-29T02:37:27;2.13;;;1.75;;
4021;SDS011;2025;48.260;16.432;2022-09-29T02:40:08;2.00;;;1.80;;
4021;SDS011;2025;48.260;16.432;2022-09-29T02:42:47;1.60;;;1.50;;
4021;SDS011;2025;48.260;16.432;2022-09-29T02:45:22;1.50;;;1.35;;
4021;SDS011;2025;48.260;16.432;2022-09-29T02:48:03;2.28;;;1.50;;
4021;SDS011;2025;48.260;16.432;2022-09-29T02:50:43;1.60;;;1.50;;
4021;SDS011;2025;48.260;16.432;2022-09-29T02:53:21;4.22;;;1.40;;
4021;SDS011;2025;48.260;16.432;2022-09-29T02:55:59;1.45;;;1.35;;
4021;SDS011;2025;48.260;16.432;2022-09-29T02:58:32;2.25;;;1.20;;
4021;SDS011;2025;48.260;16.432;2022-09-29T03:01:03;5.85;;;1.60;;
4021;SDS011;2025;48.260;16.432;2022-09-29T03:03:31;2.63;;;1.33;;
4021;SDS011;2025;48.260;16.432;2022-09-29T03:06:00;2.15;;;1.30;;
4021;SDS011;2025;48.260;16.432;2022-09-29T03:08:28;2.47;;;1.50;;
4021;SDS011;2025;48.260;16.432;2022-09-29T03:10:56;1.60;;;1.50;;
4021;SDS011;2025;48.260;16.432;2022-09-29T03:13:23;1.40;;;1.30;;
4021;SDS011;2025;48.260;16.432;2022-09-29T03:15:50;1.38;;;1.27;;
4021;SDS011;2025;48.260;16.432;2022-09-29T03:18:17;1.50;;;1.42;;
4021;SDS011;2025;48.260;16.432;2022-09-29T03:20:46;1.30;;;1.20;;
4021;SDS011;2025;48.260;16.432;2022-09-29T03:23:15;1.92;;;1.33;;
4021;SDS011;2025;48.260;16.432;2022-09-29T03:25:42;1.38;;;1.30;;
4021;SDS011;2025;48.260;16.432;2022-09-29T03:28:09;2.50;;;1.00;;
4021;SDS011;2025;48.260;16.432;2022-09-29T03:30:36;1.30;;;1.15;;
4021;SDS011;2025;48.260;16.432;2022-09-29T03:33:03;1.25;;;1.05;;
4021;SDS011;2025;48.260;16.432;2022-09-29T03:35:30;2.88;;;1.20;;
4021;SDS011;2025;48.260;16.432;2022-09-29T03:37:57;1.80;;;1.40;;
4021;SDS011;2025;48.260;16.432;2022-09-29T03:40:25;2.53;;;1.35;;
4021;SDS011;2025;48.260;16.432;2022-09-29T03:42:53;1.45;;;1.25;;
4021;SDS011;2025;48.260;16.432;2022-09-29T03:45:20;1.30;;;1.20;;
4021;SDS011;2025;48.260;16.432;2022-09-29T03:47:47;2.67;;;1.20;;
4021;SDS011;2025;48.260;16.432;2022-09-29T03:50:14;1.60;;;1.30;;
4021;SDS011;2025;48.260;16.432;2022-09-29T03:52:41;1.05;;;1.00;;
4021;SDS011;2025;48.260;16.432;2022-09-29T03:55:08;1.33;;;1.20;;
4021;SDS011;2025;48.260;16.432;2022-09-29T03:57:36;2.55;;;1.20;;
4021;SDS011;2025;48.260;16.432;2022-09-29T04:00:04;2.92;;;1.50;;
4021;SDS011;2025;48.260;16.432;2022-09-29T04:02:31;1.38;;;1.30;;
4021;SDS011;2025;48.260;16.432;2022-09-29T04:05:00;1.40;;;1.30;;
4021;SDS011;2025;48.260;16.432;2022-09-29T04:07:27;1.38;;;1.27;;
4021;SDS011;2025;48.260;16.432;2022-09-29T04:09:54;1.58;;;1.48;;
4021;SDS011;2025;48.260;16.432;2022-09-29T04:12:20;1.77;;;1.45;;
4021;SDS011;2025;48.260;16.432;2022-09-29T04:14:49;1.70;;;1.60;;
4021;SDS011;2025;48.260;16.432;2022-09-29T04:17:16;1.55;;;1.45;;
4021;SDS011;2025;48.260;16.432;2022-09-29T04:19:42;1.38;;;1.35;;
4021;SDS011;2025;48.260;16.432;2022-09-29T04:22:09;1.83;;;1.55;;
4021;SDS011;2025;48.260;16.432;2022-09-29T04:24:37;1.88;;;1.50;;
4021;SDS011;2025;48.260;16.432;2022-09-29T04:27:04;2.97;;;1.75;;
4021;SDS011;2025;48.260;16.432;2022-09-29T04:29:31;3.50;;;1.40;;
4021;SDS011;2025;48.260;16.432;2022-09-29T04:31:59;1.85;;;1.75;;
4021;SDS011;2025;48.260;16.432;2022-09-29T04:34:27;1.98;;;1.88;;
4021;SDS011;2025;48.260;16.432;2022-09-29T04:36:54;2.20;;;1.77;;
4021;SDS011;2025;48.260;16.432;2022-09-29T04:39:21;1.90;;;1.80;;
4021;SDS011;2025;48.260;16.432;2022-09-29T04:41:48;2.17;;;2.08;;
4021;SDS011;2025;48.260;16.432;2022-09-29T04:44:15;2.20;;;2.00;;
4021;SDS011;2025;48.260;16.432;2022-09-29T04:46:44;4.18;;;2.08;;
4021;SDS011;2025;48.260;16.432;2022-09-29T04:49:12;3.28;;;2.13;;
4021;SDS011;2025;48.260;16.432;2022-09-29T04:51:39;3.03;;;2.28;;
4021;SDS011;2025;48.260;16.432;2022-09-29T04:54:06;2.33;;;2.22;;
4021;SDS011;2025;48.260;16.432;2022-09-29T04:56:33;4.68;;;2.35;;
4021;SDS011;2025;48.260;16.432;2022-09-29T04:59:00;3.40;;;2.75;;
4021;SDS011;2025;48.260;16.432;2022-09-29T05:01:27;2.90;;;2.70;;
4021;SDS011;2025;48.260;16.432;2022-09-29T05:03:54;2.80;;;2.60;;
4021;SDS011;2025;48.260;16.432;2022-09-29T05:06:23;2.95;;;2.75;;
4021;SDS011;2025;48.260;16.432;2022-09-29T05:08:50;3.00;;;2.80;;
4021;SDS011;2025;48.260;16.432;2022-09-29T05:11:17;3.20;;;2.83;;
4021;SDS011;2025;48.260;16.432;2022-09-29T05:13:46;3.25;;;3.05;;
4021;SDS011;2025;48.260;16.432;2022-09-29T05:16:14;6.72;;;2.72;;
4021;SDS011;2025;48.260;16.432;2022-09-29T05:18:41;2.78;;;2.67;;
4021;SDS011;2025;48.260;16.432;2022-09-29T05:21:08;4.95;;;2.90;;
4021;SDS011;2025;48.260;16.432;2022-09-29T05:23:37;3.00;;;2.80;;
4021;SDS011;2025;48.260;16.432;2022-09-29T05:26:04;3.83;;;3.53;;
4021;SDS011;2025;48.260;16.432;2022-09-29T05:28:33;4.95;;;3.28;;
4021;SDS011;2025;48.260;16.432;2022-09-29T05:31:00;3.72;;;2.85;;
4021;SDS011;2025;48.260;16.432;2022-09-29T05:33:27;2.97;;;2.78;;
4021;SDS011;2025;48.260;16.432;2022-09-29T05:35:54;2.60;;;2.50;;
4021;SDS011;2025;48.260;16.432;2022-09-29T05:38:22;2.90;;;2.70;;
4021;SDS011;2025;48.260;16.432;2022-09-29T05:40:50;3.40;;;2.88;;
4021;SDS011;2025;48.260;16.432;2022-09-29T05:43:18;3.05;;;2.85;;
4021;SDS011;2025;48.260;16.432;2022-09-29T05:45:45;3.10;;;2.90;;
4021;SDS011;2025;48.260;16.432;2022-09-29T05:48:12;4.13;;;3.00;;
4021;SDS011;2025;48.260;16.432;2022-09-29T05:50:39;2.85;;;2.65;;
4021;SDS011;2025;48.260;16.432;2022-09-29T05:53:07;3.15;;;2.90;;
4021;SDS011;2025;48.260;16.432;2022-09-29T05:55:34;4.95;;;3.03;;
4021;SDS011;2025;48.260;16.432;2022-09-29T05:58:03;3.00;;;2.83;;
4021;SDS011;2025;48.260;16.432;2022-09-29T06:00:31;3.33;;;2.88;;
4021;SDS011;2025;48.260;16.432;2022-09-29T06:02:59;2.90;;;2.70;;
4021;SDS011;2025;48.260;16.432;2022-09-29T06:05:27;3.03;;;2.63;;
4021;SDS011;2025;48.260;16.432;2022-09-29T06:07:54;2.83;;;2.72;;
4021;SDS011;2025;48.260;16.432;2022-09-29T06:10:21;2.53;;;2.33;;
4021;SDS011;2025;48.260;16.432;2022-09-29T06:12:48;3.22;;;2.92;;
4021;SDS011;2025;48.260;16.432;2022-09-29T06:15:16;6.30;;;3.05;;
4021;SDS011;2025;48.260;16.432;2022-09-29T06:17:43;6.15;;;2.58;;
4021;SDS011;2025;48.260;16.432;2022-09-29T06:20:10;3.88;;;2.92;;
4021;SDS011;2025;48.260;16.432;2022-09-29T06:22:37;4.15;;;2.88;;
4021;SDS011;2025;48.260;16.432;2022-09-29T06:25:05;4.38;;;3.42;;
4021;SDS011;2025;48.260;16.432;2022-09-29T06:27:32;2.65;;;2.55;;
4021;SDS011;2025;48.260;16.432;2022-09-29T06:29:59;4.07;;;3.88;;
4021;SDS011;2025;48.260;16.432;2022-09-29T06:32:28;3.70;;;3.40;;
4021;SDS011;2025;48.260;16.432;2022-09-29T06:34:55;3.60;;;3.30;;
4021;SDS011;2025;48.260;16.432;2022-09-29T06:37:39;3.60;;;3.40;;
4021;SDS011;2025;48.260;16.432;2022-09-29T06:40:10;4.63;;;3.80;;
4021;SDS011;2025;48.260;16.432;2022-09-29T06:42:38;3.97;;;3.67;;
4021;SDS011;2025;48.260;16.432;2022-09-29T06:45:06;3.70;;;3.35;;
4021;SDS011;2025;48.260;16.432;2022-09-29T06:47:36;6.75;;;3.78;;
4021;SDS011;2025;48.260;16.432;2022-09-29T06:50:03;4.00;;;3.75;;
4021;SDS011;2025;48.260;16.432;2022-09-29T06:52:31;3.03;;;2.83;;
4021;SDS011;2025;48.260;16.432;2022-09-29T06:54:58;3.38;;;3.10;;
4021;SDS011;2025;48.260;16.432;2022-09-29T06:57:25;3.30;;;3.00;;
4021;SDS011;2025;48.260;16.432;2022-09-29T06:59:52;2.67;;;2.58;;
4021;SDS011;2025;48.260;16.432;2022-09-29T07:02:18;3.38;;;3.15;;
4021;SDS011;2025;48.260;16.432;2022-09-29T07:04:47;3.70;;;2.95;;
4021;SDS011;2025;48.260;16.432;2022-09-29T07:07:15;2.67;;;2.58;;
4021;SDS011;2025;48.260;16.432;2022-09-29T07:09:42;3.03;;;2.83;;
4021;SDS011;2025;48.260;16.432;2022-09-29T07:12:09;2.20;;;2.10;;
4021;SDS011;2025;48.260;16.432;2022-09-29T07:14:37;3.05;;;2.20;;
4021;SDS011;2025;48.260;16.432;2022-09-29T07:17:04;2.10;;;1.92;;
4021;SDS011;2025;48.260;16.432;2022-09-29T07:19:31;2.22;;;1.85;;
4021;SDS011;2025;48.260;16.432;2022-09-29T07:21:59;1.90;;;1.80;;
4021;SDS011;2025;48.260;16.432;2022-09-29T07:24:26;1.92;;;1.83;;
4021;SDS011;2025;48.260;16.432;2022-09-29T07:26:53;2.42;;;1.70;;
4021;SDS011;2025;48.260;16.432;2022-09-29T07:29:20;2.20;;;2.00;;
4021;SDS011;2025;48.260;16.432;2022-09-29T07:31:47;2.95;;;2.40;;
4021;SDS011;2025;48.260;16.432;2022-09-29T07:34:16;3.47;;;2.45;;
4021;SDS011;2025;48.260;16.432;2022-09-29T07:36:43;6.35;;;2.70;;
4021;SDS011;2025;48.260;16.432;2022-09-29T07:39:12;2.60;;;2.40;;
4021;SDS011;2025;48.260;16.432;2022-09-29T07:41:39;3.15;;;2.30;;
4021;SDS011;2025;48.260;16.432;2022-09-29T07:44:06;2.45;;;2.20;;
4021;SDS011;2025;48.260;16.432;2022-09-29T07:46:33;2.10;;;2.00;;
4021;SDS011;2025;48.260;16.432;2022-09-29T07:49:00;3.22;;;1.90;;
4021;SDS011;2025;48.260;16.432;2022-09-29T07:51:27;2.00;;;1.90;;
4021;SDS011;2025;48.260;16.432;2022-09-29T07:53:54;2.10;;;1.88;;
4021;SDS011;2025;48.260;16.432;2022-09-29T07:56:22;2.10;;;2.00;;
4021;SDS011;2025;48.260;16.432;2022-09-29T07:58:50;3.38;;;1.88;;
4021;SDS011;2025;48.260;16.432;2022-09-29T08:01:17;3.67;;;1.80;;
4021;SDS011;2025;48.260;16.432;2022-09-29T08:03:48;2.10;;;2.00;;
4021;SDS011;2025;48.260;16.432;2022-09-29T08:08:44;1.70;;;1.60;;
4021;SDS011;2025;48.260;16.432;2022-09-29T08:11:11;2.10;;;1.83;;
4021;SDS011;2025;48.260;16.432;2022-09-29T08:13:41;1.75;;;1.60;;
4021;SDS011;2025;48.260;16.432;2022-09-29T08:16:10;1.70;;;1.60;;
4021;SDS011;2025;48.260;16.432;2022-09-29T08:18:38;1.80;;;1.70;;
4021;SDS011;2025;48.260;16.432;2022-09-29T08:21:05;2.25;;;1.70;;
4021;SDS011;2025;48.260;16.432;2022-09-29T08:23:34;1.88;;;1.77;;
4021;SDS011;2025;48.260;16.432;2022-09-29T08:26:03;2.05;;;1.65;;
4021;SDS011;2025;48.260;16.432;2022-09-29T08:28:32;1.63;;;1.45;;
4021;SDS011;2025;48.260;16.432;2022-09-29T08:31:02;1.65;;;1.55;;
4021;SDS011;2025;48.260;16.432;2022-09-29T08:33:30;1.33;;;1.27;;
4021;SDS011;2025;48.260;16.432;2022-09-29T08:35:58;2.97;;;1.35;;
4021;SDS011;2025;48.260;16.432;2022-09-29T08:38:26;1.30;;;1.20;;
4021;SDS011;2025;48.260;16.432;2022-09-29T08:40:53;2.35;;;1.35;;
4021;SDS011;2025;48.260;16.432;2022-09-29T08:43:23;1.23;;;1.20;;
4021;SDS011;2025;48.260;16.432;2022-09-29T08:45:56;2.08;;;1.17;;
4021;SDS011;2025;48.260;16.432;2022-09-29T08:48:30;2.17;;;1.40;;
4021;SDS011;2025;48.260;16.432;2022-09-29T08:51:00;1.17;;;1.08;;
4021;SDS011;2025;48.260;16.432;2022-09-29T08:53:30;1.50;;;1.30;;
4021;SDS011;2025;48.260;16.432;2022-09-29T08:56:02;1.40;;;1.30;;
4021;SDS011;2025;48.260;16.432;2022-09-29T08:58:31;1.35;;;1.20;;
4021;SDS011;2025;48.260;16.432;2022-09-29T09:01:02;1.13;;;1.13;;
4021;SDS011;2025;48.260;16.432;2022-09-29T09:03:51;1.00;;;0.90;;
4021;SDS011;2025;48.260;16.432;2022-09-29T09:06:52;1.10;;;1.10;;
4021;SDS011;2025;48.260;16.432;2022-09-29T09:09:37;1.00;;;1.00;;
4021;SDS011;2025;48.260;16.432;2022-09-29T09:12:20;4.57;;;1.30;;
4021;SDS011;2025;48.260;16.432;2022-09-29T09:15:04;2.67;;;0.90;;
4021;SDS011;2025;48.260;16.432;2022-09-29T09:17:49;2.70;;;1.40;;
4021;SDS011;2025;48.260;16.432;2022-09-29T09:20:31;1.30;;;1.05;;
4021;SDS011;2025;48.260;16.432;2022-09-29T09:23:03;1.02;;;1.00;;
4021;SDS011;2025;48.260;16.432;2022-09-29T09:25:39;1.25;;;1.20;;
4021;SDS011;2025;48.260;16.432;2022-09-29T09:28:13;1.10;;;1.10;;
4021;SDS011;2025;48.260;16.432;2022-09-29T09:30:44;1.30;;;1.20;;
4021;SDS011;2025;48.260;16.432;2022-09-29T09:33:20;2.70;;;1.38;;
4021;SDS011;2025;48.260;16.432;2022-09-29T09:35:54;1.42;;;1.20;;
4021;SDS011;2025;48.260;16.432;2022-09-29T09:38:27;1.30;;;1.20;;
4021;SDS011;2025;48.260;16.432;2022-09-29T09:41:06;1.30;;;1.20;;
4021;SDS011;2025;48.260;16.432;2022-09-29T09:43:36;0.80;;;0.80;;
4021;SDS011;2025;48.260;16.432;2022-09-29T09:46:09;1.25;;;1.10;;
4021;SDS011;2025;48.260;16.432;2022-09-29T09:48:43;1.83;;;0.90;;
4021;SDS011;2025;48.260;16.432;2022-09-29T09:51:21;1.40;;;1.27;;
4021;SDS011;2025;48.260;16.432;2022-09-29T09:53:56;1.70;;;1.30;;
4021;SDS011;2025;48.260;16.432;2022-09-29T09:56:30;0.80;;;0.80;;
4021;SDS011;2025;48.260;16.432;2022-09-29T09:59:22;2.30;;;1.13;;
4021;SDS011;2025;48.260;16.432;2022-09-29T10:01:57;1.23;;;1.00;;
4021;SDS011;2025;48.260;16.432;2022-09-29T10:04:24;1.00;;;1.00;;
4021;SDS011;2025;48.260;16.432;2022-09-29T10:06:53;1.60;;;1.00;;
4021;SDS011;2025;48.260;16.432;2022-09-29T10:09:20;2.67;;;1.15;;
4021;SDS011;2025;48.260;16.432;2022-09-29T10:11:48;1.10;;;1.10;;
4021;SDS011;2025;48.260;16.432;2022-09-29T10:14:18;1.00;;;1.00;;
4021;SDS011;2025;48.260;16.432;2022-09-29T10:16:48;0.80;;;0.80;;
4021;SDS011;2025;48.260;16.432;2022-09-29T10:19:20;0.60;;;0.60;;
4021;SDS011;2025;48.260;16.432;2022-09-29T10:21:48;1.77;;;0.80;;
4021;SDS011;2025;48.260;16.432;2022-09-29T10:24:21;1.00;;;0.85;;
4021;SDS011;2025;48.260;16.432;2022-09-29T10:26:53;1.00;;;0.90;;
4021;SDS011;2025;48.260;16.432;2022-09-29T10:29:22;1.00;;;0.85;;
4021;SDS011;2025;48.260;16.432;2022-09-29T10:31:57;0.88;;;0.88;;
4021;SDS011;2025;48.260;16.432;2022-09-29T10:34:31;0.73;;;0.70;;
4021;SDS011;2025;48.260;16.432;2022-09-29T10:37:00;1.45;;;0.77;;
4021;SDS011;2025;48.260;16.432;2022-09-29T10:39:31;0.60;;;0.60;;
4021;SDS011;2025;48.260;16.432;2022-09-29T10:42:03;2.70;;;0.65;;
4021;SDS011;2025;48.260;16.432;2022-09-29T10:44:42;0.85;;;0.85;;
4021;SDS011;2025;48.260;16.432;2022-09-29T10:47:15;1.95;;;0.80;;
4021;SDS011;2025;48.260;16.432;2022-09-29T10:49:42;3.25;;;0.60;;
4021;SDS011;2025;48.260;16.432;2022-09-29T10:52:16;1.38;;;0.70;;
4021;SDS011;2025;48.260;16.432;2022-09-29T10:54:55;0.73;;;0.73;;
4021;SDS011;2025;48.260;16.432;2022-09-29T10:57:25;1.48;;;0.43;;
4021;SDS011;2025;48.260;16.432;2022-09-29T10:59:54;2.22;;;0.60;;
4021;SDS011;2025;48.260;16.432;2022-09-29T11:02:23;0.85;;;0.60;;
4021;SDS011;2025;48.260;16.432;2022-09-29T11:04:56;0.82;;;0.60;;
4021;SDS011;2025;48.260;16.432;2022-09-29T11:07:27;9.20;;;0.80;;
4021;SDS011;2025;48.260;16.432;2022-09-29T11:09:57;1.15;;;0.50;;
4021;SDS011;2025;48.260;16.432;2022-09-29T11:12:25;1.17;;;0.80;;
4021;SDS011;2025;48.260;16.432;2022-09-29T11:17:23;0.60;;;0.60;;
4021;SDS011;2025;48.260;16.432;2022-09-29T11:19:51;2.38;;;1.30;;
4021;SDS011;2025;48.260;16.432;2022-09-29T11:22:41;0.68;;;0.68;;
4021;SDS011;2025;48.260;16.432;2022-09-29T11:28:34;1.25;;;0.60;;
4021;SDS011;2025;48.260;16.432;2022-09-29T11:31:16;0.50;;;0.50;;
4021;SDS011;2025;48.260;16.432;2022-09-29T11:33:55;0.63;;;0.63;;
4021;SDS011;2025;48.260;16.432;2022-09-29T11:36:36;2.40;;;0.80;;
4021;SDS011;2025;48.260;16.432;2022-09-29T11:42:08;0.70;;;0.70;;
4021;SDS011;2025;48.260;16.432;2022-09-29T11:44:51;2.20;;;0.68;;
4021;SDS011;2025;48.260;16.432;2022-09-29T11:50:18;3.38;;;0.90;;
4021;SDS011;2025;48.260;16.432;2022-09-29T11:53:05;1.42;;;1.00;;
4021;SDS011;2025;48.260;16.432;2022-09-29T11:58:48;2.42;;;1.00;;
4021;SDS011;2025;48.260;16.432;2022-09-29T12:01:29;4.07;;;0.93;;
4021;SDS011;2025;48.260;16.432;2022-09-29T12:04:13;1.10;;;0.88;;
4021;SDS011;2025;48.260;16.432;2022-09-29T12:06:53;1.42;;;0.70;;
4021;SDS011;2025;48.260;16.432;2022-09-29T12:12:22;1.15;;;0.70;;
4021;SDS011;2025;48.260;16.432;2022-09-29T12:15:11;0.70;;;0.70;;
4021;SDS011;2025;48.260;16.432;2022-09-29T12:17:47;3.38;;;0.85;;
4021;SDS011;2025;48.260;16.432;2022-09-29T12:20:19;2.10;;;0.88;;
4021;SDS011;2025;48.260;16.432;2022-09-29T12:25:19;0.63;;;0.63;;
4021;SDS011;2025;48.260;16.432;2022-09-29T12:27:50;1.95;;;0.90;;
4021;SDS011;2025;48.260;16.432;2022-09-29T12:30:22;3.75;;;0.98;;
4021;SDS011;2025;48.260;16.432;2022-09-29T12:32:55;1.95;;;0.77;;
4021;SDS011;2025;48.260;16.432;2022-09-29T12:35:28;2.65;;;0.70;;
4021;SDS011;2025;48.260;16.432;2022-09-29T12:38:05;0.68;;;0.68;;
4021;SDS011;2025;48.260;16.432;2022-09-29T12:40:41;4.13;;;0.50;;
4021;SDS011;2025;48.260;16.432;2022-09-29T12:43:13;1.85;;;0.60;;
4021;SDS011;2025;48.260;16.432;2022-09-29T12:48:24;2.65;;;1.15;;
4021;SDS011;2025;48.260;16.432;2022-09-29T12:51:02;0.70;;;0.70;;
4021;SDS011;2025;48.260;16.432;2022-09-29T12:53:38;0.70;;;0.70;;
4021;SDS011;2025;48.260;16.432;2022-09-29T12:56:23;2.63;;;0.85;;
4021;SDS011;2025;48.260;16.432;2022-09-29T12:58:57;1.05;;;0.73;;
4021;SDS011;2025;48.260;16.432;2022-09-29T13:01:32;3.10;;;0.70;;
4021;SDS011;2025;48.260;16.432;2022-09-29T13:10:16;5.00;;;0.88;;
4021;SDS011;2025;48.260;16.432;2022-09-29T13:13:29;2.58;;;0.75;;
4021;SDS011;2025;48.260;16.432;2022-09-29T13:16:24;2.83;;;0.70;;
4021;SDS011;2025;48.260;16.432;2022-09-29T13:22:13;0.73;;;0.73;;
4021;SDS011;2025;48.260;16.432;2022-09-29T13:25:00;0.93;;;0.80;;
4021;SDS011;2025;48.260;16.432;2022-09-29T13:27:35;0.70;;;0.70;;
4021;SDS011;2025;48.260;16.432;2022-09-29T13:30:05;1.48;;;0.60;;
4021;SDS011;2025;48.260;16.432;2022-09-29T13:32:41;0.68;;;0.68;;
4021;SDS011;2025;48.260;16.432;2022-09-29T13:35:12;3.05;;;0.90;;
4021;SDS011;2025;48.260;16.432;2022-09-29T13:37:47;1.50;;;0.68;;
4021;SDS011;2025;48.260;16.432;2022-09-29T13:40:18;1.85;;;0.77;;
4021;SDS011;2025;48.260;16.432;2022-09-29T13:42:47;0.70;;;0.70;;
4021;SDS011;2025;48.260;16.432;2022-09-29T13:51:41;3.15;;;0.80;;
4021;SDS011;2025;48.260;16.432;2022-09-29T13:54:19;0.85;;;0.63;;
4021;SDS011;2025;48.260;16.432;2022-09-29T13:57:19;4.47;;;0.95;;
4021;SDS011;2025;48.260;16.432;2022-09-29T14:05:53;0.82;;;0.82;;
4021;SDS011;2025;48.260;16.432;2022-09-29T14:08:33;2.72;;;0.82;;
4021;SDS011;2025;48.260;16.432;2022-09-29T14:11:05;1.92;;;1.20;;
4021;SDS011;2025;48.260;16.432;2022-09-29T14:13:41;1.05;;;0.70;;
4021;SDS011;2025;48.260;16.432;2022-09-29T14:16:17;6.13;;;0.60;;
4021;SDS011;2025;48.260;16.432;2022-09-29T14:19:03;2.28;;;0.98;;
4021;SDS011;2025;48.260;16.432;2022-09-29T14:21:44;2.67;;;0.70;;
4021;SDS011;2025;48.260;16.432;2022-09-29T14:27:28;0.88;;;0.80;;
4021;SDS011;2025;48.260;16.432;2022-09-29T14:29:59;0.60;;;0.60;;
4021;SDS011;2025;48.260;16.432;2022-09-29T14:32:37;1.27;;;0.80;;
4021;SDS011;2025;48.260;16.432;2022-09-29T14:35:13;0.80;;;0.80;;
4021;SDS011;2025;48.260;16.432;2022-09-29T14:37:44;0.95;;;0.85;;
4021;SDS011;2025;48.260;16.432;2022-09-29T14:40:17;0.75;;;0.50;;
4021;SDS011;2025;48.260;16.432;2022-09-29T14:43:03;1.80;;;0.70;;
4021;SDS011;2025;48.260;16.432;2022-09-29T14:45:43;1.20;;;0.80;;
4021;SDS011;2025;48.260;16.432;2022-09-29T14:48:44;3.45;;;1.00;;
4021;SDS011;2025;48.260;16.432;2022-09-29T14:54:31;1.23;;;1.00;;
4021;SDS011;2025;48.260;16.432;2022-09-29T14:57:16;3.58;;;0.75;;
4021;SDS011;2025;48.260;16.432;2022-09-29T15:00:00;4.43;;;1.05;;
4021;SDS011;2025;48.260;16.432;2022-09-29T15:02:30;2.92;;;0.70;;
4021;SDS011;2025;48.260;16.432;2022-09-29T15:04:59;1.17;;;1.10;;
4021;SDS011;2025;48.260;16.432;2022-09-29T15:07:38;3.75;;;0.90;;
4021;SDS011;2025;48.260;16.432;2022-09-29T15:10:13;3.60;;;0.90;;
4021;SDS011;2025;48.260;16.432;2022-09-29T15:12:48;1.25;;;1.15;;
4021;SDS011;2025;48.260;16.432;2022-09-29T15:15:31;1.50;;;1.17;;
4021;SDS011;2025;48.260;16.432;2022-09-29T15:18:08;1.77;;;1.40;;
4021;SDS011;2025;48.260;16.432;2022-09-29T15:20:50;5.32;;;1.30;;
4021;SDS011;2025;48.260;16.432;2022-09-29T15:23:28;2.67;;;0.88;;
4021;SDS011;2025;48.260;16.432;2022-09-29T15:26:12;6.32;;;1.35;;
4021;SDS011;2025;48.260;16.432;2022-09-29T15:28:41;1.48;;;1.20;;
4021;SDS011;2025;48.260;16.432;2022-09-29T15:31:10;1.48;;;1.10;;
4021;SDS011;2025;48.260;16.432;2022-09-29T15:33:43;1.27;;;1.05;;
4021;SDS011;2025;48.260;16.432;2022-09-29T15:36:15;0.98;;;0.90;;
4021;SDS011;2025;48.260;16.432;2022-09-29T15:38:45;2.35;;;1.10;;
4021;SDS011;2025;48.260;16.432;2022-09-29T15:41:16;2.72;;;0.88;;
4021;SDS011;2025;48.260;16.432;2022-09-29T15:43:52;1.33;;;1.02;;
4021;SDS011;2025;48.260;16.432;2022-09-29T15:46:22;1.30;;;1.00;;
4021;SDS011;2025;48.260;16.432;2022-09-29T15:51:41;1.60;;;1.05;;
4021;SDS011;2025;48.260;16.432;2022-09-29T15:54:11;2.38;;;1.10;;
4021;SDS011;2025;48.260;16.432;2022-09-29T15:56:39;2.55;;;1.42;;
4021;SDS011;2025;48.260;16.432;2022-09-29T15:59:44;3.15;;;1.67;;
4021;SDS011;2025;48.260;16.432;2022-09-29T16:02:19;1.10;;;1.10;;
4021;SDS011;2025;48.260;16.432;2022-09-29T16:04:50;1.83;;;1.30;;
4021;SDS011;2025;48.260;16.432;2022-09-29T16:07:21;1.80;;;1.10;;
4021;SDS011;2025;48.260;16.432;2022-09-29T16:09:56;5.07;;;1.10;;
4021;SDS011;2025;48.260;16.432;2022-09-29T16:12:25;2.47;;;1.00;;
4021;SDS011;2025;48.260;16.432;2022-09-29T16:14:54;1.48;;;1.30;;
4021;SDS011;2025;48.260;16.432;2022-09-29T16:17:23;3.20;;;1.45;;
4021;SDS011;2025;48.260;16.432;2022-09-29T16:19:50;1.92;;;1.55;;
4021;SDS011;2025;48.260;16.432;2022-09-29T16:22:21;2.92;;;1.30;;
4021;SDS011;2025;48.260;16.432;2022-09-29T16:24:51;3.90;;;1.40;;
4021;SDS011;2025;48.260;16.432;2022-09-29T16:30:21;2.40;;;1.40;;
4021;SDS011;2025;48.260;16.432;2022-09-29T16:32:51;2.25;;;2.05;;